createdAt,value
2019-04-22T00:00:40.433Z,15.40
2019-04-22T00:02:50.600Z,14.80
2019-04-22T00:05:01.041Z,15.00
2019-04-22T00:07:22.794Z,15.80
2019-04-22T00:09:30.978Z,16.20
2019-04-22T00:11:35.524Z,14.93
2019-04-22T00:15:47.760Z,15.50
2019-04-22T00:20:12.372Z,15.60
2019-04-22T00:22:22.125Z,16.13
2019-04-22T00:24:24.059Z,15.53
2019-04-22T00:26:30.936Z,15.60
2019-04-22T00:28:36.673Z,15.67
2019-04-22T00:30:43.424Z,15.57
2019-04-22T00:32:57.637Z,15.30
2019-04-22T00:35:05.736Z,15.67
2019-04-22T00:37:17.581Z,15.30
2019-04-22T00:39:21.401Z,15.80
2019-04-22T00:41:34.141Z,15.33
2019-04-22T00:43:33.044Z,16.07
2019-04-22T00:45:43.134Z,15.07
2019-04-22T00:47:43.413Z,15.40
2019-04-22T00:52:09.382Z,15.13
2019-04-22T00:54:06.005Z,14.97
2019-04-22T00:58:29.398Z,15.03
2019-04-22T01:00:37.587Z,15.70
2019-04-22T01:02:52.931Z,14.90
2019-04-22T01:04:54.994Z,14.03
2019-04-22T01:07:00.538Z,14.63
2019-04-22T01:09:10.500Z,14.43
2019-04-22T01:11:24.768Z,15.23
2019-04-22T01:13:24.862Z,14.63
2019-04-22T01:15:39.040Z,15.30
2019-04-22T01:17:43.432Z,14.87
2019-04-22T01:19:53.039Z,14.47
2019-04-22T01:21:52.290Z,13.77
2019-04-22T01:23:57.687Z,15.67
2019-04-22T01:26:09.523Z,14.23
2019-04-22T01:28:14.248Z,13.43
2019-04-22T01:30:17.213Z,14.20
2019-04-22T01:32:22.699Z,13.57
2019-04-22T01:34:36.463Z,14.00
2019-04-22T01:36:48.595Z,14.20
2019-04-22T01:38:58.175Z,14.13
2019-04-22T01:41:07.209Z,13.80
2019-04-22T01:43:16.885Z,12.93
2019-04-22T01:45:26.448Z,13.00
2019-04-22T01:47:33.097Z,12.83
2019-04-22T01:54:00.472Z,13.33
2019-04-22T01:56:01.912Z,13.03
2019-04-22T01:57:59.552Z,13.00
2019-04-22T02:00:09.455Z,12.90
2019-04-22T02:02:22.234Z,12.50
2019-04-22T02:04:47.988Z,12.67
2019-04-22T02:08:52.752Z,12.10
2019-04-22T02:11:08.070Z,12.60
2019-04-22T02:13:00.183Z,12.33
2019-04-22T02:15:06.653Z,12.03
2019-04-22T02:19:23.941Z,12.00
2019-04-22T02:21:21.596Z,11.97
2019-04-22T02:25:42.699Z,11.90
2019-04-22T02:28:03.240Z,10.97
2019-04-22T02:29:51.831Z,11.70
2019-04-22T02:32:15.330Z,12.13
2019-04-22T02:36:29.124Z,11.67
2019-04-22T02:38:44.579Z,11.23
2019-04-22T02:40:50.743Z,10.60
2019-04-22T02:42:34.910Z,10.70
2019-04-22T02:47:14.045Z,10.70
2019-04-22T02:49:11.794Z,10.73
2019-04-22T02:51:17.194Z,10.23
2019-04-22T02:53:30.161Z,10.70
2019-04-22T02:55:23.542Z,10.33
2019-04-22T02:59:39.550Z,9.80
2019-04-22T03:01:53.179Z,10.83
2019-04-22T03:06:18.309Z,10.07
2019-04-22T03:10:37.400Z,9.80
2019-04-22T03:14:30.660Z,9.57
2019-04-22T03:18:59.071Z,9.87
2019-04-22T03:23:05.755Z,8.70
2019-04-22T03:27:22.056Z,8.90
2019-04-22T03:37:04.387Z,8.57
2019-04-22T03:38:57.629Z,8.10
2019-04-22T03:40:46.474Z,8.17
2019-04-22T03:42:52.080Z,8.20
2019-04-22T03:45:16.877Z,8.73
2019-04-22T03:47:21.330Z,8.37
2019-04-22T03:51:36.149Z,8.07
2019-04-22T03:53:43.809Z,8.30
2019-04-22T03:55:29.158Z,8.27
2019-04-22T03:59:48.067Z,8.27
2019-04-22T04:04:09.051Z,8.27
2019-04-22T04:06:05.423Z,8.47
2019-04-22T04:08:23.990Z,8.30
2019-04-22T04:10:35.316Z,7.83
2019-04-22T04:12:28.513Z,8.17
2019-04-22T04:14:47.145Z,6.93
2019-04-22T04:16:48.062Z,7.80
2019-04-22T04:21:14.577Z,8.17
2019-04-22T04:37:55.782Z,7.53
2019-04-22T04:40:12.479Z,7.07
2019-04-22T04:42:23.050Z,7.47
2019-04-22T04:46:39.973Z,6.97
2019-04-22T04:50:55.738Z,7.30
2019-04-22T04:53:04.523Z,7.53
2019-04-22T04:55:11.941Z,7.17
2019-04-22T04:57:28.381Z,7.17
2019-04-22T05:01:24.665Z,6.80
2019-04-22T05:03:30.430Z,7.33
2019-04-22T05:07:45.826Z,7.93
2019-04-22T05:09:47.966Z,7.47
2019-04-22T05:12:13.073Z,7.93
2019-04-22T05:18:12.633Z,7.90
2019-04-22T05:22:29.773Z,7.50
2019-04-22T05:24:40.514Z,7.40
2019-04-22T05:26:46.919Z,6.37
2019-04-22T05:28:42.308Z,6.87
2019-04-22T05:30:47.660Z,7.27
2019-04-22T05:32:59.637Z,7.27
2019-04-22T05:35:06.758Z,7.27
2019-04-22T05:37:16.259Z,7.07
2019-04-22T05:39:15.724Z,7.40
2019-04-22T05:41:31.993Z,7.30
2019-04-22T05:43:38.668Z,7.57
2019-04-22T05:45:40.595Z,7.17
2019-04-22T05:49:49.790Z,6.60
2019-04-22T05:52:06.608Z,7.37
2019-04-22T05:54:13.121Z,7.17
2019-04-22T05:56:20.809Z,6.93
2019-04-22T05:58:25.852Z,6.67
2019-04-22T06:02:47.386Z,6.50
2019-04-22T06:04:48.442Z,5.97
2019-04-22T06:06:46.959Z,6.20
2019-04-22T06:08:57.855Z,5.90
2019-04-22T06:11:14.875Z,6.00
2019-04-22T06:13:11.176Z,6.00
2019-04-22T06:15:25.441Z,5.53
2019-04-22T06:17:43.142Z,6.03
2019-04-22T06:19:38.580Z,5.87
2019-04-22T06:21:45.958Z,6.17
2019-04-22T06:23:54.476Z,6.03
2019-04-22T06:28:15.580Z,6.43
2019-04-22T06:30:19.130Z,5.70
2019-04-22T06:32:26.516Z,5.93
2019-04-22T06:34:30.582Z,6.03
2019-04-22T06:36:38.264Z,6.20
2019-04-22T06:38:39.147Z,5.43
2019-04-22T06:41:00.410Z,5.80
2019-04-22T06:45:07.246Z,5.47
2019-04-22T06:47:25.132Z,4.93
2019-04-22T06:49:27.355Z,5.40
2019-04-22T06:51:29.209Z,4.97
2019-04-22T06:53:37.465Z,4.80
2019-04-22T06:55:41.280Z,5.20
2019-04-22T06:57:43.483Z,4.77
2019-04-22T07:00:00.103Z,4.67
2019-04-22T07:02:04.837Z,4.60
2019-04-22T07:04:13.777Z,4.30
2019-04-22T07:06:24.047Z,4.30
2019-04-22T07:09:01.957Z,4.40
2019-04-22T07:12:36.550Z,4.40
2019-04-22T07:14:41.953Z,4.47
2019-04-22T07:16:54.515Z,4.70
2019-04-22T07:19:04.242Z,4.37
2019-04-22T07:21:06.712Z,4.20
2019-04-22T07:23:22.868Z,4.43
2019-04-22T07:25:15.992Z,4.00
2019-04-22T07:27:27.821Z,4.37
2019-04-22T07:29:32.817Z,4.40
2019-04-22T07:31:42.805Z,4.37
2019-04-22T07:34:11.862Z,4.20
2019-04-22T07:36:22.584Z,4.03
2019-04-22T07:38:06.164Z,4.17
2019-04-22T07:40:13.784Z,4.20
2019-04-22T07:42:18.788Z,4.37
2019-04-22T07:44:30.925Z,4.33
2019-04-22T07:46:35.045Z,4.33
2019-04-22T07:49:41.180Z,3.77
2019-04-22T07:52:52.064Z,4.03
2019-04-22T07:54:58.333Z,3.57
2019-04-22T07:57:15.346Z,4.13
2019-04-22T07:59:18.572Z,3.80
2019-04-22T08:01:20.231Z,3.77
2019-04-22T08:03:37.654Z,3.50
2019-04-22T08:05:45.390Z,3.50
2019-04-22T08:07:46.533Z,3.80
2019-04-22T08:10:02.991Z,3.63
2019-04-22T08:14:07.618Z,3.17
2019-04-22T08:16:10.114Z,3.33
2019-04-22T08:18:22.386Z,3.20
2019-04-22T08:20:30.653Z,3.23
2019-04-22T08:22:37.565Z,2.77
2019-04-22T08:24:45.641Z,2.80
2019-04-22T08:27:08.736Z,2.73
2019-04-22T08:28:57.938Z,3.00
2019-04-22T08:33:15.962Z,2.70
2019-04-22T08:35:27.412Z,2.93
2019-04-22T08:39:48.611Z,2.83
2019-04-22T08:41:37.641Z,2.77
2019-04-22T08:43:57.342Z,2.47
2019-04-22T08:45:57.140Z,2.57
2019-04-22T08:48:03.029Z,2.60
2019-04-22T08:52:20.868Z,3.30
2019-04-22T08:54:28.238Z,2.67
2019-04-22T08:56:43.692Z,2.97
2019-04-22T08:58:42.221Z,3.00
2019-04-22T09:00:58.265Z,2.22
2019-04-22T09:03:00.604Z,2.97
2019-04-22T09:05:05.105Z,3.30
2019-04-22T09:09:21.291Z,2.80
2019-04-22T09:11:33.827Z,2.87
2019-04-22T09:13:35.586Z,3.15
2019-04-22T09:15:55.520Z,3.60
2019-04-22T09:17:53.452Z,3.72
2019-04-22T09:19:56.683Z,3.17
2019-04-22T09:22:05.911Z,3.47
2019-04-22T09:24:14.169Z,3.37
2019-04-22T09:26:20.840Z,3.58
2019-04-22T09:28:24.594Z,3.27
2019-04-22T09:30:38.163Z,3.20
2019-04-22T09:32:38.048Z,3.20
2019-04-22T09:34:56.261Z,3.67
2019-04-22T09:37:17.974Z,3.60
2019-04-22T09:38:52.958Z,3.37
2019-04-22T09:41:05.444Z,3.42
2019-04-22T09:43:11.387Z,3.00
2019-04-22T09:45:15.123Z,3.87
2019-04-22T09:47:24.967Z,3.50
2019-04-22T09:49:44.292Z,3.25
2019-04-22T09:51:44.964Z,3.52
2019-04-22T09:53:57.754Z,3.62
2019-04-22T09:55:57.221Z,3.55
2019-04-22T09:58:03.219Z,3.33
2019-04-22T10:00:10.257Z,3.22
2019-04-22T10:02:34.306Z,3.80
2019-04-22T10:04:21.856Z,3.17
2019-04-22T10:08:47.496Z,3.62
2019-04-22T10:10:53.077Z,2.98
2019-04-22T10:12:56.657Z,3.35
2019-04-22T10:15:00.589Z,3.62
2019-04-22T10:17:09.656Z,3.20
2019-04-22T10:19:17.055Z,7.37
2019-04-22T10:21:35.638Z,3.70
2019-04-22T10:23:31.526Z,3.75
2019-04-22T10:25:50.872Z,3.08
2019-04-22T10:27:47.661Z,2.95
2019-04-22T10:32:01.136Z,2.85
2019-04-22T10:33:56.087Z,3.30
2019-04-22T10:35:51.813Z,2.95
2019-04-22T10:37:58.542Z,2.95
2019-04-22T10:40:08.203Z,2.80
2019-04-22T10:42:13.371Z,2.83
2019-04-22T10:44:23.631Z,3.08
2019-04-22T10:46:30.542Z,2.67
2019-04-22T10:48:36.557Z,2.98
2019-04-22T10:50:46.611Z,2.95
2019-04-22T10:52:53.043Z,2.77
2019-04-22T10:54:59.131Z,2.80
2019-04-22T10:57:04.393Z,3.00
2019-04-22T10:59:10.849Z,3.75
2019-04-22T11:01:17.782Z,2.70
2019-04-22T11:03:24.299Z,2.83
2019-04-22T11:05:30.277Z,2.70
2019-04-22T11:07:43.617Z,3.20
2019-04-22T11:09:51.751Z,2.42
2019-04-22T11:11:59.405Z,3.05
2019-04-22T11:13:58.071Z,2.27
2019-04-22T11:16:03.585Z,2.75
2019-04-22T11:18:09.535Z,2.30
2019-04-22T11:20:15.598Z,2.40
2019-04-22T11:22:26.314Z,2.98
2019-04-22T11:24:28.517Z,2.50
2019-04-22T11:26:34.607Z,2.40
2019-04-22T11:28:41.307Z,2.83
2019-04-22T11:30:48.129Z,2.50
2019-04-22T11:32:54.207Z,3.10
2019-04-22T11:34:59.669Z,2.08
2019-04-22T11:37:05.328Z,2.72
2019-04-22T11:39:12.923Z,2.45
2019-04-22T11:41:17.779Z,2.27
2019-04-22T11:43:24.168Z,1.98
2019-04-22T11:45:31.279Z,1.95
2019-04-22T11:47:37.368Z,2.22
2019-04-22T11:49:43.891Z,2.20
2019-04-22T11:51:49.894Z,2.27
2019-04-22T11:53:56.650Z,2.40
2019-04-22T11:56:02.897Z,2.72
2019-04-22T11:58:08.717Z,2.50
2019-04-22T12:00:18.716Z,2.00
2019-04-22T12:02:27.185Z,2.40
2019-04-22T12:04:33.971Z,2.02
2019-04-22T12:06:40.097Z,2.30
2019-04-22T12:08:45.883Z,2.62
2019-04-22T12:10:56.886Z,2.17
2019-04-22T12:12:59.847Z,2.08
2019-04-22T12:15:06.499Z,2.22
2019-04-22T12:17:11.796Z,2.00
2019-04-22T12:19:16.955Z,2.30
2019-04-22T12:21:23.402Z,1.82
2019-04-22T12:23:29.383Z,2.05
2019-04-22T12:25:47.624Z,2.15
2019-04-22T12:27:43.054Z,2.02
2019-04-22T12:29:49.034Z,1.65
2019-04-22T12:31:55.594Z,2.10
2019-04-22T12:34:01.495Z,2.20
2019-04-22T12:36:10.684Z,2.15
2019-04-22T12:38:18.333Z,1.98
2019-04-22T12:40:33.820Z,1.87
2019-04-22T12:42:31.358Z,1.70
2019-04-22T12:44:39.090Z,2.00
2019-04-22T12:46:43.933Z,2.30
2019-04-22T12:48:49.860Z,2.00
2019-04-22T12:50:58.055Z,2.08
2019-04-22T12:53:07.241Z,1.72
2019-04-22T12:55:10.032Z,1.87
2019-04-22T12:57:16.701Z,1.67
2019-04-22T12:59:23.479Z,1.90
2019-04-22T13:01:29.053Z,2.00
2019-04-22T13:03:34.250Z,1.80
2019-04-22T13:05:40.873Z,2.02
2019-04-22T13:07:47.465Z,2.00
2019-04-22T13:09:52.995Z,2.10
2019-04-22T13:11:59.208Z,2.05
2019-04-22T13:14:05.071Z,1.75
2019-04-22T13:16:10.944Z,1.82
2019-04-22T13:18:27.036Z,1.90
2019-04-22T13:20:24.325Z,1.87
2019-04-22T13:22:30.595Z,1.72
2019-04-22T13:24:36.190Z,2.17
2019-04-22T13:26:43.060Z,2.10
2019-04-22T13:28:49.270Z,2.02
2019-04-22T13:30:54.878Z,1.80
2019-04-22T13:33:00.886Z,1.95
2019-04-22T13:35:08.744Z,2.08
2019-04-22T13:37:14.814Z,2.25
2019-04-22T13:39:20.901Z,2.12
2019-04-22T13:41:35.450Z,2.05
2019-04-22T13:43:34.752Z,2.00
2019-04-22T13:45:40.807Z,2.05
2019-04-22T13:48:06.332Z,2.20
2019-04-22T13:50:28.333Z,2.05
2019-04-22T13:52:40.079Z,1.87
2019-04-22T13:56:40.306Z,2.45
2019-04-22T13:58:35.500Z,2.52
2019-04-22T14:00:31.046Z,2.02
2019-04-22T14:02:58.319Z,2.20
2019-04-22T14:05:04.332Z,1.75
2019-04-22T14:07:10.638Z,2.30
2019-04-22T14:09:17.235Z,2.35
2019-04-22T14:11:34.508Z,2.42
2019-04-22T14:13:30.100Z,2.15
2019-04-22T14:15:37.988Z,1.92
2019-04-22T14:17:43.367Z,2.33
2019-04-22T14:19:48.836Z,2.20
2019-04-22T14:21:55.636Z,2.50
2019-04-22T14:24:02.588Z,1.92
2019-04-22T14:26:09.143Z,1.72
2019-04-22T14:28:17.571Z,1.95
2019-04-22T14:30:22.138Z,2.02
2019-04-22T14:32:31.235Z,1.85
2019-04-22T14:34:34.306Z,1.90
2019-04-22T14:36:41.301Z,1.75
2019-04-22T14:38:47.945Z,1.45
2019-04-22T14:40:54.426Z,1.72
2019-04-22T14:44:43.034Z,1.75
2019-04-22T14:46:00.262Z,1.60
2019-04-22T14:47:42.744Z,1.62
2019-04-22T14:49:48.100Z,1.60
2019-04-22T14:51:49.472Z,1.65
2019-04-22T14:53:56.562Z,1.52
2019-04-22T14:55:44.378Z,1.40
2019-04-22T14:57:50.860Z,1.52
2019-04-22T14:59:56.043Z,1.57
2019-04-22T15:02:01.461Z,1.42
2019-04-22T15:04:06.724Z,1.42
2019-04-22T15:06:12.667Z,1.30
2019-04-22T15:08:19.203Z,1.22
2019-04-22T15:10:26.200Z,1.60
2019-04-22T15:12:39.174Z,1.42
2019-04-22T15:14:39.594Z,1.27
2019-04-22T15:17:20.706Z,1.42
2019-04-22T15:19:45.593Z,1.07
2019-04-22T15:21:52.560Z,1.02
2019-04-22T15:24:00.793Z,1.35
2019-04-22T15:26:06.712Z,1.00
2019-04-22T15:28:13.410Z,1.20
2019-04-22T15:30:19.403Z,1.40
2019-04-22T15:32:25.265Z,1.15
2019-04-22T15:34:30.792Z,1.10
2019-04-22T15:36:37.847Z,1.30
2019-04-22T15:38:43.027Z,1.20
2019-04-22T15:40:48.968Z,1.12
2019-04-22T15:42:55.046Z,1.00
2019-04-22T15:45:02.419Z,1.20
2019-04-22T15:47:09.128Z,0.90
2019-04-22T15:49:14.289Z,1.10
2019-04-22T15:51:20.708Z,1.20
2019-04-22T15:53:27.280Z,1.15
2019-04-22T15:55:34.566Z,1.05
2019-04-22T15:57:39.928Z,1.10
2019-04-22T16:00:05.247Z,1.00
2019-04-22T16:01:58.186Z,1.00
2019-04-22T16:04:00.770Z,1.05
2019-04-22T16:06:06.217Z,1.30
2019-04-22T16:08:12.804Z,1.30
2019-04-22T16:10:19.679Z,1.00
2019-04-22T16:12:30.914Z,1.20
2019-04-22T16:14:41.454Z,1.30
2019-04-22T16:16:40.671Z,1.12
2019-04-22T16:18:46.494Z,1.20
2019-04-22T16:20:52.516Z,1.10
2019-04-22T16:23:20.888Z,1.07
2019-04-22T16:25:47.193Z,1.35
2019-04-22T16:27:52.649Z,1.00
2019-04-22T16:29:59.331Z,1.70
2019-04-22T16:32:05.394Z,1.20
2019-04-22T16:34:11.432Z,1.10
2019-04-22T16:36:16.811Z,1.10
2019-04-22T16:38:22.550Z,1.50
2019-04-22T16:40:28.042Z,2.33
2019-04-22T16:42:40.094Z,1.32
2019-04-22T16:44:40.767Z,1.47
2019-04-22T16:46:45.893Z,1.30
2019-04-22T16:48:51.822Z,1.20
2019-04-22T16:50:58.450Z,1.00
2019-04-22T16:53:04.123Z,1.20
2019-04-22T16:55:10.603Z,1.17
2019-04-22T16:57:15.961Z,0.90
2019-04-22T16:59:22.582Z,1.00
2019-04-22T17:01:54.464Z,1.07
2019-04-22T17:04:06.924Z,0.98
2019-04-22T17:06:21.726Z,0.88
2019-04-22T17:08:28.554Z,3.87
2019-04-22T17:10:35.600Z,2.25
2019-04-22T17:12:50.763Z,1.20
2019-04-22T17:14:54.748Z,1.20
2019-04-22T17:16:56.736Z,1.40
2019-04-22T17:19:02.560Z,1.10
2019-04-22T17:21:09.189Z,1.25
2019-04-22T17:23:15.775Z,1.30
2019-04-22T17:25:22.371Z,0.90
2019-04-22T17:27:29.356Z,1.20
2019-04-22T17:29:36.596Z,0.98
2019-04-22T17:31:50.223Z,1.07
2019-04-22T17:33:50.796Z,1.20
2019-04-22T17:35:56.997Z,3.75
2019-04-22T17:38:12.769Z,1.75
2019-04-22T17:40:30.472Z,2.62
2019-04-22T17:42:39.511Z,2.15
2019-04-22T17:44:51.183Z,1.90
2019-04-22T17:46:51.035Z,1.30
2019-04-22T17:49:12.250Z,1.37
2019-04-22T17:51:29.826Z,1.20
2019-04-22T17:53:25.998Z,1.10
2019-04-22T17:55:36.938Z,2.55
2019-04-22T17:57:45.223Z,1.42
2019-04-22T17:59:42.164Z,1.17
2019-04-22T18:01:52.311Z,1.50
2019-04-22T18:03:48.573Z,1.70
2019-04-22T18:05:55.371Z,1.32
2019-04-22T18:08:11.700Z,1.05
2019-04-22T18:10:36.211Z,1.80
2019-04-22T18:14:54.782Z,1.35
2019-04-22T18:16:41.341Z,1.10
2019-04-22T18:18:52.933Z,1.32
2019-04-22T18:20:50.934Z,1.37
2019-04-22T18:22:54.828Z,1.25
2019-04-22T18:25:01.998Z,1.00
2019-04-22T18:27:31.950Z,1.47
2019-04-22T18:29:22.290Z,1.70
2019-04-22T18:31:21.797Z,1.30
2019-04-22T18:33:41.360Z,1.20
2019-04-22T18:35:39.344Z,1.10
2019-04-22T18:37:54.793Z,1.07
2019-04-22T18:40:03.298Z,1.50
2019-04-22T18:42:03.652Z,1.20
2019-04-22T18:44:16.925Z,1.13
2019-04-22T18:46:21.269Z,1.40
2019-04-22T18:48:25.450Z,1.30
2019-04-22T18:50:45.586Z,1.90
2019-04-22T18:52:58.987Z,1.20
2019-04-22T18:55:17.673Z,1.17
2019-04-22T18:57:22.443Z,0.93
2019-04-22T18:59:19.499Z,1.03
2019-04-22T19:01:19.891Z,1.10
2019-04-22T19:03:29.606Z,1.03
2019-04-22T19:05:49.498Z,1.03
2019-04-22T19:08:07.437Z,1.30
2019-04-22T19:10:27.399Z,1.30
2019-04-22T19:12:33.752Z,1.40
2019-04-22T19:14:24.221Z,1.03
2019-04-22T19:19:07.585Z,1.10
2019-04-22T19:20:51.897Z,1.00
2019-04-22T19:22:57.519Z,1.10
2019-04-22T19:24:54.671Z,1.03
2019-04-22T19:27:20.219Z,1.50
2019-04-22T19:29:20.375Z,1.07
2019-04-22T19:31:26.987Z,1.10
2019-04-22T19:33:35.238Z,1.00
2019-04-22T19:35:30.256Z,1.10
2019-04-22T19:37:43.887Z,1.20
2019-04-22T19:40:03.472Z,1.17
2019-04-22T19:42:00.711Z,1.20
2019-04-22T19:44:10.220Z,1.20
2019-04-22T19:46:12.977Z,1.07
2019-04-22T19:48:32.926Z,1.00
2019-04-22T19:50:35.392Z,1.23
2019-04-22T19:52:56.736Z,1.40
2019-04-22T19:54:42.891Z,1.10
2019-04-22T19:56:42.765Z,1.07
2019-04-22T19:58:54.934Z,1.33
2019-04-22T20:01:22.117Z,1.15
2019-04-22T20:04:00.834Z,1.30
2019-04-22T20:05:59.456Z,1.00
2019-04-22T20:08:12.587Z,0.90
2019-04-22T20:10:19.608Z,1.10
2019-04-22T20:12:21.757Z,1.30
2019-04-22T20:14:28.029Z,1.00
2019-04-22T20:16:32.490Z,1.10
2019-04-22T20:18:48.328Z,1.60
2019-04-22T20:20:58.298Z,1.00
2019-04-22T20:22:59.827Z,1.10
2019-04-22T20:24:54.288Z,1.07
2019-04-22T20:27:13.780Z,1.50
2019-04-22T20:29:27.148Z,1.10
2019-04-22T20:31:25.377Z,1.30
2019-04-22T20:33:35.282Z,1.30
2019-04-22T20:35:45.214Z,1.33
2019-04-22T20:37:54.168Z,0.97
2019-04-22T20:39:58.669Z,1.47
2019-04-22T20:42:16.693Z,1.10
2019-04-22T20:44:11.022Z,1.03
2019-04-22T20:46:19.040Z,0.93
2019-04-22T20:48:11.577Z,1.40
2019-04-22T20:50:29.434Z,1.00
2019-04-22T20:52:47.191Z,0.97
2019-04-22T20:54:44.874Z,1.10
2019-04-22T20:56:49.753Z,1.13
2019-04-22T20:58:56.227Z,0.93
2019-04-22T21:00:55.737Z,0.73
2019-04-22T21:03:05.197Z,0.97
2019-04-22T21:05:14.500Z,0.90
2019-04-22T21:07:23.787Z,1.00
2019-04-22T21:09:35.558Z,1.10
2019-04-22T21:11:40.825Z,0.83
2019-04-22T21:13:51.807Z,1.10
2019-04-22T21:15:59.227Z,1.37
2019-04-22T21:18:01.187Z,1.10
2019-04-22T21:20:17.301Z,0.80
2019-04-22T21:22:24.336Z,0.90
2019-04-22T21:24:23.593Z,0.80
2019-04-22T21:26:29.423Z,0.90
2019-04-22T21:28:38.393Z,1.00
2019-04-22T21:30:50.595Z,1.37
2019-04-22T21:32:53.570Z,0.80
2019-04-22T21:35:05.806Z,1.10
2019-04-22T21:37:15.963Z,1.10
2019-04-22T21:39:12.182Z,1.00
2019-04-22T21:41:20.366Z,0.80
2019-04-22T21:43:30.043Z,0.80
2019-04-22T21:45:28.045Z,0.90
2019-04-22T21:47:55.788Z,1.30
2019-04-22T21:50:05.293Z,1.00
2019-04-22T21:52:01.214Z,0.90
2019-04-22T21:54:15.383Z,0.93
2019-04-22T21:56:36.876Z,1.27
2019-04-22T21:58:38.555Z,1.00
2019-04-22T22:01:06.443Z,1.13
2019-04-22T22:03:07.205Z,1.03
2019-04-22T22:05:06.837Z,0.73
2019-04-22T22:07:05.297Z,1.03
2019-04-22T22:09:25.381Z,0.90
2019-04-22T22:11:33.877Z,1.17
2019-04-22T22:13:43.796Z,0.90
2019-04-22T22:15:48.858Z,1.20
2019-04-22T22:17:52.268Z,1.00
2019-04-22T22:19:59.760Z,1.03
2019-04-22T22:22:15.132Z,2.10
2019-04-22T22:24:34.358Z,1.00
2019-04-22T22:26:18.570Z,1.33
2019-04-22T22:28:46.390Z,1.03
2019-04-22T22:32:47.804Z,1.03
2019-04-22T22:34:50.737Z,1.30
2019-04-22T22:36:53.103Z,0.87
2019-04-22T22:39:01.636Z,0.97
2019-04-22T22:40:54.115Z,0.93
2019-04-22T22:43:05.491Z,0.90
2019-04-22T22:45:17.561Z,0.87
2019-04-22T22:47:38.381Z,0.80
2019-04-22T22:49:48.237Z,0.73
2019-04-22T22:51:53.128Z,1.00
2019-04-22T22:54:01.101Z,0.97
2019-04-22T22:56:06.317Z,1.10
2019-04-22T22:58:10.280Z,0.93
2019-04-22T23:00:16.237Z,0.87
2019-04-22T23:02:26.718Z,0.80
2019-04-22T23:04:37.166Z,0.80
2019-04-22T23:06:45.532Z,1.07
2019-04-22T23:08:53.943Z,0.80
2019-04-22T23:11:00.428Z,0.90
2019-04-22T23:13:08.503Z,0.80
2019-04-22T23:15:06.271Z,1.00
2019-04-22T23:16:59.719Z,0.87
2019-04-22T23:19:06.450Z,0.80
2019-04-22T23:21:19.335Z,0.83
2019-04-22T23:23:38.123Z,1.00
2019-04-22T23:25:51.443Z,0.90
2019-04-22T23:27:55.219Z,0.87
2019-04-22T23:30:15.691Z,0.77
2019-04-22T23:32:28.505Z,0.83
2019-04-22T23:34:38.787Z,0.80
2019-04-22T23:36:55.808Z,0.70
2019-04-22T23:39:13.925Z,0.80
2019-04-22T23:43:48.627Z,1.10
2019-04-22T23:45:51.470Z,0.80
2019-04-22T23:47:47.447Z,1.20
2019-04-22T23:50:06.259Z,0.90
2019-04-22T23:52:14.402Z,0.90
2019-04-22T23:54:23.980Z,1.00
2019-04-22T23:56:26.608Z,1.10
2019-04-22T23:58:52.791Z,1.00
